sensor_id;sensor_type;location;lat;lon;timestamp;P1;durP1;ratioP1;P2;durP2;ratioP2
33022;SDS011;19390;51.460;5.710;2023-06-22T00:01:57;10.20;;;7.20;;
33022;SDS011;19390;51.460;5.710;2023-06-22T00:04:23;10.20;;;7.57;;
33022;SDS011;19390;51.460;5.710;2023-06-22T00:06:49;7.72;;;6.75;;
33022;SDS011;19390;51.460;5.710;2023-06-22T00:09:14;9.02;;;6.70;;
33022;SDS011;19390;51.460;5.710;2023-06-22T00:11:40;8.32;;;6.60;;
33022;SDS011;19390;51.460;5.710;2023-06-22T00:14:05;10.02;;;7.55;;
33022;SDS011;19390;51.460;5.710;2023-06-22T00:16:31;7.97;;;7.07;;
33022;SDS011;19390;51.460;5.710;2023-06-22T00:18:58;8.98;;;7.65;;
33022;SDS011;19390;51.460;5.710;2023-06-22T00:21:28;10.13;;;8.13;;
33022;SDS011;19390;51.460;5.710;2023-06-22T00:23:54;9.70;;;7.30;;
33022;SDS011;19390;51.460;5.710;2023-06-22T00:26:20;9.27;;;6.47;;
33022;SDS011;19390;51.460;5.710;2023-06-22T00:28:46;8.25;;;6.88;;
33022;SDS011;19390;51.460;5.710;2023-06-22T00:31:12;11.10;;;7.22;;
33022;SDS011;19390;51.460;5.710;2023-06-22T00:33:38;11.07;;;6.78;;
33022;SDS011;19390;51.460;5.710;2023-06-22T00:36:04;7.03;;;6.32;;
33022;SDS011;19390;51.460;5.710;2023-06-22T00:38:31;10.90;;;7.18;;
33022;SDS011;19390;51.460;5.710;2023-06-22T00:40:56;8.82;;;7.68;;
33022;SDS011;19390;51.460;5.710;2023-06-22T00:43:22;9.73;;;8.00;;
33022;SDS011;19390;51.460;5.710;2023-06-22T00:45:48;13.85;;;9.57;;
33022;SDS011;19390;51.460;5.710;2023-06-22T00:48:13;10.98;;;9.40;;
33022;SDS011;19390;51.460;5.710;2023-06-22T00:50:39;12.93;;;9.50;;
33022;SDS011;19390;51.460;5.710;2023-06-22T00:53:06;10.95;;;9.60;;
33022;SDS011;19390;51.460;5.710;2023-06-22T00:55:36;13.07;;;9.32;;
33022;SDS011;19390;51.460;5.710;2023-06-22T00:58:04;13.00;;;10.52;;
33022;SDS011;19390;51.460;5.710;2023-06-22T01:00:35;10.52;;;9.43;;
33022;SDS011;19390;51.460;5.710;2023-06-22T01:03:02;10.73;;;9.50;;
33022;SDS011;19390;51.460;5.710;2023-06-22T01:05:28;15.43;;;11.60;;
33022;SDS011;19390;51.460;5.710;2023-06-22T01:08:06;16.75;;;10.70;;
33022;SDS011;19390;51.460;5.710;2023-06-22T01:10:54;14.18;;;11.55;;
33022;SDS011;19390;51.460;5.710;2023-06-22T01:13:44;17.17;;;11.63;;
33022;SDS011;19390;51.460;5.710;2023-06-22T01:16:20;21.40;;;12.52;;
33022;SDS011;19390;51.460;5.710;2023-06-22T01:18:55;17.38;;;12.60;;
33022;SDS011;19390;51.460;5.710;2023-06-22T01:21:23;18.65;;;13.45;;
33022;SDS011;19390;51.460;5.710;2023-06-22T01:26:42;19.38;;;13.63;;
33022;SDS011;19390;51.460;5.710;2023-06-22T01:29:18;15.45;;;13.80;;
33022;SDS011;19390;51.460;5.710;2023-06-22T01:31:45;15.05;;;13.18;;
33022;SDS011;19390;51.460;5.710;2023-06-22T01:34:12;16.40;;;14.60;;
33022;SDS011;19390;51.460;5.710;2023-06-22T01:36:38;18.55;;;13.55;;
33022;SDS011;19390;51.460;5.710;2023-06-22T01:39:05;21.10;;;14.60;;
33022;SDS011;19390;51.460;5.710;2023-06-22T01:41:33;19.55;;;15.77;;
33022;SDS011;19390;51.460;5.710;2023-06-22T01:44:00;17.98;;;15.07;;
33022;SDS011;19390;51.460;5.710;2023-06-22T01:46:28;16.75;;;14.65;;
33022;SDS011;19390;51.460;5.710;2023-06-22T01:48:54;19.42;;;15.52;;
33022;SDS011;19390;51.460;5.710;2023-06-22T01:51:20;16.00;;;14.02;;
33022;SDS011;19390;51.460;5.710;2023-06-22T01:53:46;19.42;;;14.82;;
33022;SDS011;19390;51.460;5.710;2023-06-22T01:56:12;21.13;;;15.05;;
33022;SDS011;19390;51.460;5.710;2023-06-22T01:58:41;22.80;;;16.15;;
33022;SDS011;19390;51.460;5.710;2023-06-22T02:01:15;19.45;;;14.90;;
33022;SDS011;19390;51.460;5.710;2023-06-22T02:03:52;25.95;;;15.95;;
33022;SDS011;19390;51.460;5.710;2023-06-22T02:06:24;18.75;;;16.60;;
33022;SDS011;19390;51.460;5.710;2023-06-22T02:08:55;20.73;;;15.57;;
33022;SDS011;19390;51.460;5.710;2023-06-22T02:11:25;20.13;;;15.10;;
33022;SDS011;19390;51.460;5.710;2023-06-22T02:13:53;20.35;;;16.23;;
33022;SDS011;19390;51.460;5.710;2023-06-22T02:16:20;20.33;;;16.25;;
33022;SDS011;19390;51.460;5.710;2023-06-22T02:18:50;17.38;;;15.57;;
33022;SDS011;19390;51.460;5.710;2023-06-22T02:21:16;19.23;;;16.02;;
33022;SDS011;19390;51.460;5.710;2023-06-22T02:23:45;19.50;;;16.42;;
33022;SDS011;19390;51.460;5.710;2023-06-22T02:26:11;21.92;;;16.40;;
33022;SDS011;19390;51.460;5.710;2023-06-22T02:28:37;18.13;;;15.50;;
33022;SDS011;19390;51.460;5.710;2023-06-22T02:31:03;21.92;;;17.23;;
33022;SDS011;19390;51.460;5.710;2023-06-22T02:33:29;18.58;;;15.52;;
33022;SDS011;19390;51.460;5.710;2023-06-22T02:35:55;19.83;;;17.73;;
33022;SDS011;19390;51.460;5.710;2023-06-22T02:38:20;17.30;;;15.50;;
33022;SDS011;19390;51.460;5.710;2023-06-22T02:40:46;21.27;;;16.05;;
33022;SDS011;19390;51.460;5.710;2023-06-22T02:43:12;20.20;;;15.50;;
33022;SDS011;19390;51.460;5.710;2023-06-22T02:45:38;17.40;;;15.23;;
33022;SDS011;19390;51.460;5.710;2023-06-22T02:48:04;21.40;;;15.75;;
33022;SDS011;19390;51.460;5.710;2023-06-22T02:50:29;18.70;;;16.05;;
33022;SDS011;19390;51.460;5.710;2023-06-22T02:52:55;17.67;;;15.80;;
33022;SDS011;19390;51.460;5.710;2023-06-22T02:55:21;20.75;;;15.93;;
33022;SDS011;19390;51.460;5.710;2023-06-22T02:57:46;19.92;;;15.13;;
33022;SDS011;19390;51.460;5.710;2023-06-22T03:00:13;20.33;;;14.88;;
33022;SDS011;19390;51.460;5.710;2023-06-22T03:02:45;16.60;;;14.75;;
33022;SDS011;19390;51.460;5.710;2023-06-22T03:05:11;21.55;;;15.90;;
33022;SDS011;19390;51.460;5.710;2023-06-22T03:07:43;18.40;;;15.02;;
33022;SDS011;19390;51.460;5.710;2023-06-22T03:10:09;19.50;;;15.85;;
33022;SDS011;19390;51.460;5.710;2023-06-22T03:12:39;19.20;;;15.63;;
33022;SDS011;19390;51.460;5.710;2023-06-22T03:15:06;19.75;;;16.05;;
33022;SDS011;19390;51.460;5.710;2023-06-22T03:17:33;18.00;;;15.32;;
33022;SDS011;19390;51.460;5.710;2023-06-22T03:20:00;20.15;;;15.75;;
33022;SDS011;19390;51.460;5.710;2023-06-22T03:22:26;19.25;;;16.17;;
33022;SDS011;19390;51.460;5.710;2023-06-22T03:24:51;18.25;;;16.20;;
33022;SDS011;19390;51.460;5.710;2023-06-22T03:27:17;17.83;;;15.85;;
33022;SDS011;19390;51.460;5.710;2023-06-22T03:29:43;20.25;;;15.38;;
33022;SDS011;19390;51.460;5.710;2023-06-22T03:32:09;17.90;;;15.15;;
33022;SDS011;19390;51.460;5.710;2023-06-22T03:34:35;16.13;;;14.40;;
33022;SDS011;19390;51.460;5.710;2023-06-22T03:37:01;17.65;;;15.07;;
33022;SDS011;19390;51.460;5.710;2023-06-22T03:39:26;21.25;;;15.73;;
33022;SDS011;19390;51.460;5.710;2023-06-22T03:41:52;18.52;;;14.75;;
33022;SDS011;19390;51.460;5.710;2023-06-22T03:44:18;17.73;;;15.15;;
33022;SDS011;19390;51.460;5.710;2023-06-22T03:46:44;18.27;;;15.13;;
33022;SDS011;19390;51.460;5.710;2023-06-22T03:49:09;19.52;;;14.80;;
33022;SDS011;19390;51.460;5.710;2023-06-22T03:51:35;17.95;;;14.23;;
33022;SDS011;19390;51.460;5.710;2023-06-22T03:54:00;17.45;;;15.10;;
33022;SDS011;19390;51.460;5.710;2023-06-22T03:56:26;16.98;;;14.80;;
33022;SDS011;19390;51.460;5.710;2023-06-22T03:58:51;16.25;;;14.57;;
33022;SDS011;19390;51.460;5.710;2023-06-22T04:01:17;15.57;;;14.07;;
33022;SDS011;19390;51.460;5.710;2023-06-22T04:03:43;17.58;;;15.45;;
33022;SDS011;19390;51.460;5.710;2023-06-22T04:06:08;17.70;;;15.20;;
33022;SDS011;19390;51.460;5.710;2023-06-22T04:08:34;17.48;;;15.13;;
33022;SDS011;19390;51.460;5.710;2023-06-22T04:11:00;18.35;;;15.63;;
33022;SDS011;19390;51.460;5.710;2023-06-22T04:13:25;15.68;;;13.80;;
33022;SDS011;19390;51.460;5.710;2023-06-22T04:15:51;16.95;;;14.27;;
33022;SDS011;19390;51.460;5.710;2023-06-22T04:18:17;16.02;;;13.23;;
33022;SDS011;19390;51.460;5.710;2023-06-22T04:20:42;19.15;;;14.00;;
33022;SDS011;19390;51.460;5.710;2023-06-22T04:23:11;16.13;;;13.20;;
33022;SDS011;19390;51.460;5.710;2023-06-22T04:25:38;16.40;;;13.80;;
33022;SDS011;19390;51.460;5.710;2023-06-22T04:28:04;18.13;;;14.48;;
33022;SDS011;19390;51.460;5.710;2023-06-22T04:30:30;17.83;;;13.43;;
33022;SDS011;19390;51.460;5.710;2023-06-22T04:32:57;16.13;;;13.65;;
33022;SDS011;19390;51.460;5.710;2023-06-22T04:35:23;18.42;;;13.98;;
33022;SDS011;19390;51.460;5.710;2023-06-22T04:37:49;20.52;;;14.93;;
33022;SDS011;19390;51.460;5.710;2023-06-22T04:40:19;17.95;;;14.30;;
33022;SDS011;19390;51.460;5.710;2023-06-22T04:42:48;18.27;;;14.43;;
33022;SDS011;19390;51.460;5.710;2023-06-22T04:45:18;17.45;;;14.65;;
33022;SDS011;19390;51.460;5.710;2023-06-22T04:47:44;17.25;;;14.35;;
33022;SDS011;19390;51.460;5.710;2023-06-22T04:50:10;18.83;;;15.18;;
33022;SDS011;19390;51.460;5.710;2023-06-22T04:52:39;19.02;;;14.73;;
33022;SDS011;19390;51.460;5.710;2023-06-22T04:55:05;19.98;;;14.88;;
33022;SDS011;19390;51.460;5.710;2023-06-22T04:57:31;19.38;;;15.38;;
33022;SDS011;19390;51.460;5.710;2023-06-22T04:59:58;18.70;;;14.98;;
33022;SDS011;19390;51.460;5.710;2023-06-22T05:02:41;20.88;;;14.98;;
33022;SDS011;19390;51.460;5.710;2023-06-22T05:05:07;18.00;;;14.85;;
33022;SDS011;19390;51.460;5.710;2023-06-22T05:07:36;18.77;;;16.38;;
33022;SDS011;19390;51.460;5.710;2023-06-22T05:10:02;18.42;;;15.68;;
33022;SDS011;19390;51.460;5.710;2023-06-22T05:12:29;17.02;;;15.23;;
33022;SDS011;19390;51.460;5.710;2023-06-22T05:14:55;18.58;;;14.90;;
33022;SDS011;19390;51.460;5.710;2023-06-22T05:17:21;18.65;;;15.63;;
33022;SDS011;19390;51.460;5.710;2023-06-22T05:19:46;19.85;;;14.88;;
33022;SDS011;19390;51.460;5.710;2023-06-22T05:22:16;17.75;;;15.63;;
33022;SDS011;19390;51.460;5.710;2023-06-22T05:24:42;18.58;;;16.40;;
33022;SDS011;19390;51.460;5.710;2023-06-22T05:27:08;17.17;;;15.35;;
33022;SDS011;19390;51.460;5.710;2023-06-22T05:29:34;19.30;;;15.95;;
33022;SDS011;19390;51.460;5.710;2023-06-22T05:32:01;21.27;;;16.70;;
33022;SDS011;19390;51.460;5.710;2023-06-22T05:34:26;18.08;;;15.68;;
33022;SDS011;19390;51.460;5.710;2023-06-22T05:36:52;17.40;;;15.60;;
33022;SDS011;19390;51.460;5.710;2023-06-22T05:39:17;19.10;;;16.92;;
33022;SDS011;19390;51.460;5.710;2023-06-22T05:41:44;19.58;;;16.92;;
33022;SDS011;19390;51.460;5.710;2023-06-22T05:44:11;20.27;;;16.90;;
33022;SDS011;19390;51.460;5.710;2023-06-22T05:46:39;23.42;;;18.40;;
33022;SDS011;19390;51.460;5.710;2023-06-22T05:49:09;22.02;;;18.35;;
33022;SDS011;19390;51.460;5.710;2023-06-22T05:51:35;19.83;;;17.75;;
33022;SDS011;19390;51.460;5.710;2023-06-22T05:54:00;20.08;;;17.98;;
33022;SDS011;19390;51.460;5.710;2023-06-22T05:56:26;20.77;;;18.25;;
33022;SDS011;19390;51.460;5.710;2023-06-22T05:58:52;21.23;;;17.13;;
33022;SDS011;19390;51.460;5.710;2023-06-22T06:01:18;22.83;;;18.48;;
33022;SDS011;19390;51.460;5.710;2023-06-22T06:03:44;19.70;;;17.35;;
33022;SDS011;19390;51.460;5.710;2023-06-22T06:06:09;23.27;;;18.15;;
33022;SDS011;19390;51.460;5.710;2023-06-22T06:08:36;23.83;;;18.63;;
33022;SDS011;19390;51.460;5.710;2023-06-22T06:11:02;23.02;;;18.58;;
33022;SDS011;19390;51.460;5.710;2023-06-22T06:13:27;26.02;;;17.48;;
33022;SDS011;19390;51.460;5.710;2023-06-22T06:15:53;25.23;;;18.88;;
33022;SDS011;19390;51.460;5.710;2023-06-22T06:18:20;23.77;;;18.05;;
33022;SDS011;19390;51.460;5.710;2023-06-22T06:20:46;30.35;;;17.70;;
33022;SDS011;19390;51.460;5.710;2023-06-22T06:23:11;24.42;;;18.45;;
33022;SDS011;19390;51.460;5.710;2023-06-22T06:25:37;22.35;;;18.15;;
33022;SDS011;19390;51.460;5.710;2023-06-22T06:28:03;30.45;;;18.45;;
33022;SDS011;19390;51.460;5.710;2023-06-22T06:30:28;21.23;;;18.23;;
33022;SDS011;19390;51.460;5.710;2023-06-22T06:32:54;25.73;;;19.70;;
33022;SDS011;19390;51.460;5.710;2023-06-22T06:35:20;25.15;;;18.98;;
33022;SDS011;19390;51.460;5.710;2023-06-22T06:37:47;23.42;;;18.30;;
33022;SDS011;19390;51.460;5.710;2023-06-22T06:40:15;22.77;;;20.17;;
33022;SDS011;19390;51.460;5.710;2023-06-22T06:42:43;24.63;;;19.23;;
33022;SDS011;19390;51.460;5.710;2023-06-22T06:45:11;28.95;;;19.67;;
33022;SDS011;19390;51.460;5.710;2023-06-22T06:47:37;27.25;;;20.05;;
33022;SDS011;19390;51.460;5.710;2023-06-22T06:50:04;24.67;;;19.88;;
33022;SDS011;19390;51.460;5.710;2023-06-22T06:52:30;25.30;;;19.67;;
33022;SDS011;19390;51.460;5.710;2023-06-22T06:54:56;29.98;;;20.70;;
33022;SDS011;19390;51.460;5.710;2023-06-22T06:57:22;30.40;;;20.45;;
33022;SDS011;19390;51.460;5.710;2023-06-22T06:59:47;30.65;;;21.73;;
33022;SDS011;19390;51.460;5.710;2023-06-22T07:02:14;34.15;;;22.25;;
33022;SDS011;19390;51.460;5.710;2023-06-22T07:04:40;39.03;;;21.83;;
33022;SDS011;19390;51.460;5.710;2023-06-22T07:07:06;35.30;;;22.52;;
33022;SDS011;19390;51.460;5.710;2023-06-22T07:09:32;29.15;;;21.13;;
33022;SDS011;19390;51.460;5.710;2023-06-22T07:11:58;34.85;;;22.45;;
33022;SDS011;19390;51.460;5.710;2023-06-22T07:14:23;30.83;;;22.58;;
33022;SDS011;19390;51.460;5.710;2023-06-22T07:16:49;23.95;;;21.08;;
33022;SDS011;19390;51.460;5.710;2023-06-22T07:19:15;27.20;;;22.17;;
33022;SDS011;19390;51.460;5.710;2023-06-22T07:21:40;28.23;;;21.77;;
33022;SDS011;19390;51.460;5.710;2023-06-22T07:24:06;31.70;;;21.52;;
33022;SDS011;19390;51.460;5.710;2023-06-22T07:26:32;30.20;;;21.63;;
33022;SDS011;19390;51.460;5.710;2023-06-22T07:28:58;32.85;;;21.27;;
33022;SDS011;19390;51.460;5.710;2023-06-22T07:31:24;30.70;;;21.38;;
33022;SDS011;19390;51.460;5.710;2023-06-22T07:33:50;28.60;;;20.80;;
33022;SDS011;19390;51.460;5.710;2023-06-22T07:36:16;26.58;;;20.40;;
33022;SDS011;19390;51.460;5.710;2023-06-22T07:38:42;22.85;;;20.17;;
33022;SDS011;19390;51.460;5.710;2023-06-22T07:41:08;28.92;;;22.23;;
33022;SDS011;19390;51.460;5.710;2023-06-22T07:43:34;23.73;;;20.98;;
33022;SDS011;19390;51.460;5.710;2023-06-22T07:46:02;24.70;;;19.63;;
33022;SDS011;19390;51.460;5.710;2023-06-22T07:48:28;25.45;;;21.73;;
33022;SDS011;19390;51.460;5.710;2023-06-22T07:50:54;28.58;;;22.42;;
33022;SDS011;19390;51.460;5.710;2023-06-22T07:53:20;24.70;;;21.95;;
33022;SDS011;19390;51.460;5.710;2023-06-22T07:55:46;26.20;;;21.85;;
33022;SDS011;19390;51.460;5.710;2023-06-22T07:58:12;26.27;;;21.60;;
33022;SDS011;19390;51.460;5.710;2023-06-22T08:00:38;24.65;;;21.25;;
33022;SDS011;19390;51.460;5.710;2023-06-22T08:03:04;26.67;;;20.40;;
33022;SDS011;19390;51.460;5.710;2023-06-22T08:05:30;23.45;;;21.02;;
33022;SDS011;19390;51.460;5.710;2023-06-22T08:07:56;24.42;;;21.17;;
33022;SDS011;19390;51.460;5.710;2023-06-22T08:10:22;22.30;;;19.98;;
33022;SDS011;19390;51.460;5.710;2023-06-22T08:12:47;29.60;;;22.30;;
33022;SDS011;19390;51.460;5.710;2023-06-22T08:15:13;29.35;;;22.20;;
33022;SDS011;19390;51.460;5.710;2023-06-22T08:17:38;23.15;;;19.80;;
33022;SDS011;19390;51.460;5.710;2023-06-22T08:20:05;24.08;;;21.42;;
33022;SDS011;19390;51.460;5.710;2023-06-22T08:22:35;24.52;;;21.20;;
33022;SDS011;19390;51.460;5.710;2023-06-22T08:25:01;24.50;;;20.02;;
33022;SDS011;19390;51.460;5.710;2023-06-22T08:27:29;33.78;;;20.92;;
33022;SDS011;19390;51.460;5.710;2023-06-22T08:29:56;28.13;;;20.92;;
33022;SDS011;19390;51.460;5.710;2023-06-22T08:32:24;25.77;;;21.42;;
33022;SDS011;19390;51.460;5.710;2023-06-22T08:34:51;26.10;;;22.92;;
33022;SDS011;19390;51.460;5.710;2023-06-22T08:37:17;27.63;;;21.50;;
33022;SDS011;19390;51.460;5.710;2023-06-22T08:39:43;26.25;;;21.42;;
33022;SDS011;19390;51.460;5.710;2023-06-22T08:42:08;29.30;;;21.65;;
33022;SDS011;19390;51.460;5.710;2023-06-22T08:44:34;26.83;;;21.92;;
33022;SDS011;19390;51.460;5.710;2023-06-22T08:47:00;31.85;;;21.55;;
33022;SDS011;19390;51.460;5.710;2023-06-22T08:49:25;32.70;;;21.70;;
33022;SDS011;19390;51.460;5.710;2023-06-22T08:51:51;34.38;;;21.25;;
33022;SDS011;19390;51.460;5.710;2023-06-22T08:54:18;27.45;;;21.38;;
33022;SDS011;19390;51.460;5.710;2023-06-22T08:56:44;28.58;;;22.38;;
33022;SDS011;19390;51.460;5.710;2023-06-22T08:59:10;32.10;;;22.20;;
33022;SDS011;19390;51.460;5.710;2023-06-22T09:01:35;30.17;;;21.50;;
33022;SDS011;19390;51.460;5.710;2023-06-22T09:04:01;25.67;;;21.85;;
33022;SDS011;19390;51.460;5.710;2023-06-22T09:06:26;33.67;;;21.98;;
33022;SDS011;19390;51.460;5.710;2023-06-22T09:08:52;27.98;;;21.65;;
33022;SDS011;19390;51.460;5.710;2023-06-22T09:11:18;29.83;;;22.13;;
33022;SDS011;19390;51.460;5.710;2023-06-22T09:13:43;29.38;;;21.40;;
33022;SDS011;19390;51.460;5.710;2023-06-22T09:16:09;33.45;;;21.95;;
33022;SDS011;19390;51.460;5.710;2023-06-22T09:18:35;28.48;;;22.02;;
33022;SDS011;19390;51.460;5.710;2023-06-22T09:21:01;28.48;;;21.88;;
33022;SDS011;19390;51.460;5.710;2023-06-22T09:23:27;25.77;;;22.45;;
33022;SDS011;19390;51.460;5.710;2023-06-22T09:25:52;25.10;;;20.80;;
33022;SDS011;19390;51.460;5.710;2023-06-22T09:28:18;28.17;;;20.73;;
33022;SDS011;19390;51.460;5.710;2023-06-22T09:30:43;28.17;;;22.95;;
33022;SDS011;19390;51.460;5.710;2023-06-22T09:33:12;25.92;;;20.17;;
33022;SDS011;19390;51.460;5.710;2023-06-22T09:35:37;23.02;;;20.67;;
33022;SDS011;19390;51.460;5.710;2023-06-22T09:38:03;23.15;;;20.75;;
33022;SDS011;19390;51.460;5.710;2023-06-22T09:40:29;25.25;;;20.13;;
33022;SDS011;19390;51.460;5.710;2023-06-22T09:42:54;22.42;;;20.05;;
33022;SDS011;19390;51.460;5.710;2023-06-22T09:45:20;21.90;;;19.70;;
33022;SDS011;19390;51.460;5.710;2023-06-22T09:47:45;22.50;;;20.05;;
33022;SDS011;19390;51.460;5.710;2023-06-22T09:50:11;23.80;;;19.95;;
33022;SDS011;19390;51.460;5.710;2023-06-22T09:52:37;22.42;;;20.13;;
33022;SDS011;19390;51.460;5.710;2023-06-22T09:55:02;27.35;;;20.38;;
33022;SDS011;19390;51.460;5.710;2023-06-22T09:57:28;22.55;;;19.80;;
33022;SDS011;19390;51.460;5.710;2023-06-22T09:59:54;23.52;;;19.75;;
33022;SDS011;19390;51.460;5.710;2023-06-22T10:02:20;23.80;;;19.67;;
33022;SDS011;19390;51.460;5.710;2023-06-22T10:04:45;27.33;;;18.70;;
33022;SDS011;19390;51.460;5.710;2023-06-22T10:07:11;21.77;;;18.45;;
33022;SDS011;19390;51.460;5.710;2023-06-22T10:09:37;26.25;;;17.65;;
33022;SDS011;19390;51.460;5.710;2023-06-22T10:12:02;20.60;;;18.13;;
33022;SDS011;19390;51.460;5.710;2023-06-22T10:14:28;21.13;;;18.17;;
33022;SDS011;19390;51.460;5.710;2023-06-22T10:16:54;20.00;;;17.55;;
33022;SDS011;19390;51.460;5.710;2023-06-22T10:19:20;24.70;;;18.63;;
33022;SDS011;19390;51.460;5.710;2023-06-22T10:21:45;23.75;;;16.88;;
33022;SDS011;19390;51.460;5.710;2023-06-22T10:24:11;22.92;;;18.15;;
33022;SDS011;19390;51.460;5.710;2023-06-22T10:26:37;21.33;;;17.08;;
33022;SDS011;19390;51.460;5.710;2023-06-22T10:29:02;20.20;;;17.55;;
33022;SDS011;19390;51.460;5.710;2023-06-22T10:31:28;24.52;;;19.02;;
33022;SDS011;19390;51.460;5.710;2023-06-22T10:33:54;23.95;;;18.90;;
33022;SDS011;19390;51.460;5.710;2023-06-22T10:36:21;22.58;;;18.27;;
33022;SDS011;19390;51.460;5.710;2023-06-22T10:38:47;22.20;;;19.27;;
33022;SDS011;19390;51.460;5.710;2023-06-22T10:41:13;24.20;;;19.98;;
33022;SDS011;19390;51.460;5.710;2023-06-22T10:43:39;23.20;;;20.50;;
33022;SDS011;19390;51.460;5.710;2023-06-22T10:46:04;23.77;;;20.77;;
33022;SDS011;19390;51.460;5.710;2023-06-22T10:48:31;25.63;;;21.42;;
33022;SDS011;19390;51.460;5.710;2023-06-22T10:50:57;24.30;;;21.70;;
33022;SDS011;19390;51.460;5.710;2023-06-22T10:53:22;25.77;;;23.08;;
33022;SDS011;19390;51.460;5.710;2023-06-22T10:55:48;28.23;;;22.40;;
33022;SDS011;19390;51.460;5.710;2023-06-22T10:58:13;38.50;;;25.50;;
33022;SDS011;19390;51.460;5.710;2023-06-22T11:00:39;42.17;;;26.33;;
33022;SDS011;19390;51.460;5.710;2023-06-22T11:03:05;47.88;;;29.83;;
33022;SDS011;19390;51.460;5.710;2023-06-22T11:05:31;56.72;;;30.95;;
33022;SDS011;19390;51.460;5.710;2023-06-22T11:07:57;45.35;;;30.55;;
33022;SDS011;19390;51.460;5.710;2023-06-22T11:10:22;40.40;;;31.15;;
33022;SDS011;19390;51.460;5.710;2023-06-22T11:12:54;54.92;;;34.40;;
33022;SDS011;19390;51.460;5.710;2023-06-22T11:15:23;44.90;;;36.05;;
33022;SDS011;19390;51.460;5.710;2023-06-22T11:22:19;39.33;;;32.50;;
33022;SDS011;19390;51.460;5.710;2023-06-22T11:32:09;41.88;;;35.15;;
33022;SDS011;19390;51.460;5.710;2023-06-22T11:34:58;56.17;;;42.78;;
33022;SDS011;19390;51.460;5.710;2023-06-22T11:38:05;47.08;;;38.67;;
33022;SDS011;19390;51.460;5.710;2023-06-22T11:40:37;49.08;;;39.80;;
33022;SDS011;19390;51.460;5.710;2023-06-22T11:43:17;45.33;;;37.15;;
33022;SDS011;19390;51.460;5.710;2023-06-22T11:45:48;45.35;;;38.50;;
33022;SDS011;19390;51.460;5.710;2023-06-22T11:48:14;47.92;;;39.38;;
33022;SDS011;19390;51.460;5.710;2023-06-22T11:50:39;48.13;;;40.60;;
33022;SDS011;19390;51.460;5.710;2023-06-22T11:53:05;36.78;;;33.00;;
33022;SDS011;19390;51.460;5.710;2023-06-22T11:55:31;40.15;;;35.80;;
33022;SDS011;19390;51.460;5.710;2023-06-22T11:57:57;41.53;;;35.08;;
33022;SDS011;19390;51.460;5.710;2023-06-22T12:00:28;42.15;;;34.65;;
33022;SDS011;19390;51.460;5.710;2023-06-22T12:02:54;37.88;;;32.35;;
33022;SDS011;19390;51.460;5.710;2023-06-22T12:05:21;40.60;;;36.28;;
33022;SDS011;19390;51.460;5.710;2023-06-22T12:07:47;38.47;;;32.72;;
33022;SDS011;19390;51.460;5.710;2023-06-22T12:10:13;39.50;;;35.22;;
33022;SDS011;19390;51.460;5.710;2023-06-22T12:12:39;34.75;;;31.15;;
33022;SDS011;19390;51.460;5.710;2023-06-22T12:15:05;34.75;;;30.98;;
33022;SDS011;19390;51.460;5.710;2023-06-22T12:17:31;38.83;;;33.65;;
33022;SDS011;19390;51.460;5.710;2023-06-22T12:19:58;35.50;;;31.80;;
33022;SDS011;19390;51.460;5.710;2023-06-22T12:22:23;38.00;;;33.30;;
33022;SDS011;19390;51.460;5.710;2023-06-22T12:24:49;38.33;;;34.35;;
33022;SDS011;19390;51.460;5.710;2023-06-22T12:27:15;40.67;;;35.33;;
33022;SDS011;19390;51.460;5.710;2023-06-22T12:29:43;35.17;;;31.35;;
33022;SDS011;19390;51.460;5.710;2023-06-22T12:32:10;34.30;;;30.67;;
33022;SDS011;19390;51.460;5.710;2023-06-22T12:34:38;38.92;;;34.78;;
33022;SDS011;19390;51.460;5.710;2023-06-22T12:37:04;38.55;;;34.35;;
33022;SDS011;19390;51.460;5.710;2023-06-22T12:39:30;36.33;;;32.10;;
33022;SDS011;19390;51.460;5.710;2023-06-22T12:41:57;36.85;;;32.88;;
33022;SDS011;19390;51.460;5.710;2023-06-22T12:44:22;38.35;;;33.60;;
33022;SDS011;19390;51.460;5.710;2023-06-22T12:46:48;33.90;;;30.30;;
33022;SDS011;19390;51.460;5.710;2023-06-22T12:49:13;36.20;;;32.42;;
33022;SDS011;19390;51.460;5.710;2023-06-22T12:51:40;35.75;;;31.92;;
33022;SDS011;19390;51.460;5.710;2023-06-22T12:54:07;35.85;;;32.08;;
33022;SDS011;19390;51.460;5.710;2023-06-22T12:56:33;36.45;;;32.45;;
33022;SDS011;19390;51.460;5.710;2023-06-22T12:58:58;36.92;;;32.90;;
33022;SDS011;19390;51.460;5.710;2023-06-22T13:01:26;40.40;;;36.00;;
33022;SDS011;19390;51.460;5.710;2023-06-22T13:03:53;36.90;;;33.22;;
33022;SDS011;19390;51.460;5.710;2023-06-22T13:06:18;34.70;;;31.30;;
33022;SDS011;19390;51.460;5.710;2023-06-22T13:08:44;38.92;;;34.35;;
33022;SDS011;19390;51.460;5.710;2023-06-22T13:11:10;35.30;;;31.63;;
33022;SDS011;19390;51.460;5.710;2023-06-22T13:13:35;36.55;;;32.67;;
33022;SDS011;19390;51.460;5.710;2023-06-22T13:16:01;35.38;;;31.30;;
33022;SDS011;19390;51.460;5.710;2023-06-22T13:18:27;38.05;;;33.95;;
33022;SDS011;19390;51.460;5.710;2023-06-22T13:20:52;40.33;;;36.03;;
33022;SDS011;19390;51.460;5.710;2023-06-22T13:23:19;39.60;;;35.35;;
33022;SDS011;19390;51.460;5.710;2023-06-22T13:25:46;38.03;;;34.05;;
33022;SDS011;19390;51.460;5.710;2023-06-22T13:28:12;39.03;;;35.08;;
33022;SDS011;19390;51.460;5.710;2023-06-22T13:30:39;44.15;;;38.65;;
33022;SDS011;19390;51.460;5.710;2023-06-22T13:33:05;40.05;;;35.88;;
33022;SDS011;19390;51.460;5.710;2023-06-22T13:35:31;47.47;;;39.50;;
33022;SDS011;19390;51.460;5.710;2023-06-22T13:37:56;38.92;;;34.72;;
33022;SDS011;19390;51.460;5.710;2023-06-22T13:40:23;39.75;;;35.63;;
33022;SDS011;19390;51.460;5.710;2023-06-22T13:42:49;38.97;;;34.83;;
33022;SDS011;19390;51.460;5.710;2023-06-22T13:45:15;39.83;;;35.83;;
33022;SDS011;19390;51.460;5.710;2023-06-22T13:47:42;42.10;;;37.72;;
33022;SDS011;19390;51.460;5.710;2023-06-22T13:50:08;40.67;;;36.47;;
33022;SDS011;19390;51.460;5.710;2023-06-22T13:52:34;48.50;;;42.88;;
33022;SDS011;19390;51.460;5.710;2023-06-22T13:55:01;39.15;;;35.08;;
33022;SDS011;19390;51.460;5.710;2023-06-22T13:57:27;43.97;;;39.38;;
33022;SDS011;19390;51.460;5.710;2023-06-22T13:59:52;42.70;;;38.35;;
33022;SDS011;19390;51.460;5.710;2023-06-22T14:02:19;43.13;;;38.80;;
33022;SDS011;19390;51.460;5.710;2023-06-22T14:04:45;40.78;;;36.58;;
33022;SDS011;19390;51.460;5.710;2023-06-22T14:07:10;43.67;;;39.13;;
33022;SDS011;19390;51.460;5.710;2023-06-22T14:09:36;42.25;;;37.83;;
33022;SDS011;19390;51.460;5.710;2023-06-22T14:12:05;44.13;;;39.53;;
33022;SDS011;19390;51.460;5.710;2023-06-22T14:14:32;44.30;;;38.47;;
33022;SDS011;19390;51.460;5.710;2023-06-22T14:16:58;42.17;;;37.65;;
33022;SDS011;19390;51.460;5.710;2023-06-22T14:19:24;42.00;;;37.45;;
33022;SDS011;19390;51.460;5.710;2023-06-22T14:21:50;40.03;;;35.80;;
33022;SDS011;19390;51.460;5.710;2023-06-22T14:24:15;37.67;;;33.85;;
33022;SDS011;19390;51.460;5.710;2023-06-22T14:26:42;39.25;;;35.25;;
33022;SDS011;19390;51.460;5.710;2023-06-22T14:29:08;42.92;;;38.47;;
33022;SDS011;19390;51.460;5.710;2023-06-22T14:31:33;40.80;;;36.53;;
33022;SDS011;19390;51.460;5.710;2023-06-22T14:33:59;47.30;;;41.92;;
33022;SDS011;19390;51.460;5.710;2023-06-22T14:36:25;44.45;;;39.80;;